sensor_id;sensor_type;location;lat;lon;timestamp;pressure;altitude;pressure_sealevel;temperature;humidity
50592;BME280;36548;50.506;30.834;2023-06-22T00:00:38;100269.97;;;24.08;49.81
50592;BME280;36548;50.506;30.834;2023-06-22T00:01:49;100275.26;;;24.09;48.84
50592;BME280;36548;50.506;30.834;2023-06-22T00:03:00;100280.36;;;24.12;48.54
50592;BME280;36548;50.506;30.834;2023-06-22T00:04:10;100276.59;;;24.13;47.86
50592;BME280;36548;50.506;30.834;2023-06-22T00:05:19;100272.81;;;24.14;47.89
50592;BME280;36548;50.506;30.834;2023-06-22T00:06:30;100278.95;;;24.16;47.97
50592;BME280;36548;50.506;30.834;2023-06-22T00:07:39;100276.89;;;24.19;48.08
50592;BME280;36548;50.506;30.834;2023-06-22T00:08:48;100279.44;;;24.20;48.15
50592;BME280;36548;50.506;30.834;2023-06-22T00:09:58;100277.72;;;24.19;49.45
50592;BME280;36548;50.506;30.834;2023-06-22T00:11:09;100286.22;;;24.09;50.41
50592;BME280;36548;50.506;30.834;2023-06-22T00:12:18;100280.44;;;24.04;50.97
50592;BME280;36548;50.506;30.834;2023-06-22T00:13:28;100284.44;;;24.02;51.33
50592;BME280;36548;50.506;30.834;2023-06-22T00:14:37;100290.64;;;23.95;51.74
50592;BME280;36548;50.506;30.834;2023-06-22T00:15:45;100291.72;;;23.86;52.37
50592;BME280;36548;50.506;30.834;2023-06-22T00:16:54;100282.07;;;23.75;52.77
50592;BME280;36548;50.506;30.834;2023-06-22T00:18:08;100292.04;;;23.68;53.16
50592;BME280;36548;50.506;30.834;2023-06-22T00:19:19;100288.15;;;23.62;53.65
50592;BME280;36548;50.506;30.834;2023-06-22T00:20:30;100285.41;;;23.62;53.93
50592;BME280;36548;50.506;30.834;2023-06-22T00:21:40;100285.22;;;23.64;54.10
50592;BME280;36548;50.506;30.834;2023-06-22T00:22:48;100283.36;;;23.64;54.16
50592;BME280;36548;50.506;30.834;2023-06-22T00:23:58;100289.67;;;23.65;54.53
50592;BME280;36548;50.506;30.834;2023-06-22T00:25:13;100279.98;;;23.77;54.34
50592;BME280;36548;50.506;30.834;2023-06-22T00:26:23;100281.08;;;23.68;54.31
50592;BME280;36548;50.506;30.834;2023-06-22T00:27:34;100287.63;;;23.67;54.46
50592;BME280;36548;50.506;30.834;2023-06-22T00:28:43;100288.46;;;23.68;54.75
50592;BME280;36548;50.506;30.834;2023-06-22T00:29:54;100293.10;;;23.67;53.92
50592;BME280;36548;50.506;30.834;2023-06-22T00:31:03;100298.58;;;23.67;54.38
50592;BME280;36548;50.506;30.834;2023-06-22T00:32:12;100297.52;;;23.68;54.50
50592;BME280;36548;50.506;30.834;2023-06-22T00:33:21;100296.50;;;23.69;54.24
50592;BME280;36548;50.506;30.834;2023-06-22T00:34:30;100291.70;;;23.71;54.24
50592;BME280;36548;50.506;30.834;2023-06-22T00:35:40;100289.61;;;23.73;54.44
50592;BME280;36548;50.506;30.834;2023-06-22T00:36:50;100292.16;;;23.75;53.95
50592;BME280;36548;50.506;30.834;2023-06-22T00:38:03;100289.42;;;23.75;52.48
50592;BME280;36548;50.506;30.834;2023-06-22T00:39:13;100298.33;;;23.77;52.69
50592;BME280;36548;50.506;30.834;2023-06-22T00:40:28;100286.23;;;23.86;53.33
50592;BME280;36548;50.506;30.834;2023-06-22T00:41:38;100287.55;;;23.75;53.37
50592;BME280;36548;50.506;30.834;2023-06-22T00:42:48;100290.30;;;23.75;53.33
50592;BME280;36548;50.506;30.834;2023-06-22T00:43:57;100282.91;;;23.76;52.38
50592;BME280;36548;50.506;30.834;2023-06-22T00:45:07;100290.95;;;23.77;53.47
50592;BME280;36548;50.506;30.834;2023-06-22T00:46:18;100291.13;;;23.76;52.52
50592;BME280;36548;50.506;30.834;2023-06-22T00:47:28;100294.72;;;23.76;52.48
50592;BME280;36548;50.506;30.834;2023-06-22T00:48:37;100292.84;;;23.77;52.48
50592;BME280;36548;50.506;30.834;2023-06-22T00:49:55;100283.18;;;23.89;53.35
50592;BME280;36548;50.506;30.834;2023-06-22T00:51:06;100294.72;;;23.76;52.52
50592;BME280;36548;50.506;30.834;2023-06-22T00:52:16;100290.30;;;23.75;53.64
50592;BME280;36548;50.506;30.834;2023-06-22T00:53:34;100291.06;;;23.84;54.31
50592;BME280;36548;50.506;30.834;2023-06-22T00:54:43;100291.70;;;23.71;54.56
50592;BME280;36548;50.506;30.834;2023-06-22T00:55:54;100296.19;;;23.64;55.00
50592;BME280;36548;50.506;30.834;2023-06-22T00:57:04;100296.09;;;23.57;55.44
50592;BME280;36548;50.506;30.834;2023-06-22T00:58:14;100300.42;;;23.52;55.82
50592;BME280;36548;50.506;30.834;2023-06-22T00:59:25;100294.44;;;23.48;56.12
50592;BME280;36548;50.506;30.834;2023-06-22T01:00:35;100291.02;;;23.46;56.33
50592;BME280;36548;50.506;30.834;2023-06-22T01:01:44;100295.84;;;23.44;56.06
50592;BME280;36548;50.506;30.834;2023-06-22T01:02:54;100294.81;;;23.45;53.70
50592;BME280;36548;50.506;30.834;2023-06-22T01:04:03;100295.47;;;23.47;54.77
50592;BME280;36548;50.506;30.834;2023-06-22T01:05:13;100296.34;;;23.47;54.02
50592;BME280;36548;50.506;30.834;2023-06-22T01:06:26;100295.97;;;23.51;53.37
50592;BME280;36548;50.506;30.834;2023-06-22T01:07:37;100294.94;;;23.52;52.11
50592;BME280;36548;50.506;30.834;2023-06-22T01:10:14;100297.05;;;23.64;51.64
50592;BME280;36548;50.506;30.834;2023-06-22T01:11:23;100296.43;;;23.54;51.45
50592;BME280;36548;50.506;30.834;2023-06-22T01:12:34;100292.35;;;23.50;52.14
50592;BME280;36548;50.506;30.834;2023-06-22T01:13:50;100300.94;;;23.47;52.62
50592;BME280;36548;50.506;30.834;2023-06-22T01:15:11;100301.57;;;23.57;52.67
50592;BME280;36548;50.506;30.834;2023-06-22T01:16:23;100300.29;;;23.45;52.19
50592;BME280;36548;50.506;30.834;2023-06-22T01:17:34;100301.97;;;23.46;51.78
50592;BME280;36548;50.506;30.834;2023-06-22T01:18:45;100299.23;;;23.46;51.51
50592;BME280;36548;50.506;30.834;2023-06-22T01:19:56;100300.11;;;23.46;51.62
50592;BME280;36548;50.506;30.834;2023-06-22T01:21:06;100307.30;;;23.47;51.59
50592;BME280;36548;50.506;30.834;2023-06-22T01:22:18;100308.98;;;23.48;51.42
50592;BME280;36548;50.506;30.834;2023-06-22T01:23:39;100307.30;;;23.47;51.58
50592;BME280;36548;50.506;30.834;2023-06-22T01:26:18;100297.55;;;23.45;52.32
50592;BME280;36548;50.506;30.834;2023-06-22T01:28:50;100296.49;;;23.46;52.11
50592;BME280;36548;50.506;30.834;2023-06-22T01:30:00;100300.11;;;23.46;51.89
50592;BME280;36548;50.506;30.834;2023-06-22T01:31:12;100296.34;;;23.47;51.87
50592;BME280;36548;50.506;30.834;2023-06-22T01:32:23;100304.37;;;23.49;51.84
50592;BME280;36548;50.506;30.834;2023-06-22T01:33:33;100306.05;;;23.50;51.97
50592;BME280;36548;50.506;30.834;2023-06-22T01:34:43;100303.31;;;23.50;51.92
50592;BME280;36548;50.506;30.834;2023-06-22T01:35:53;100303.50;;;23.48;51.91
50592;BME280;36548;50.506;30.834;2023-06-22T01:37:04;100301.81;;;23.47;52.04
50592;BME280;36548;50.506;30.834;2023-06-22T01:38:15;100306.42;;;23.47;52.03
50592;BME280;36548;50.506;30.834;2023-06-22T01:39:23;100298.39;;;23.45;51.98
50592;BME280;36548;50.506;30.834;2023-06-22T01:40:39;100299.86;;;23.56;51.84
50592;BME280;36548;50.506;30.834;2023-06-22T01:41:48;100303.03;;;23.45;51.97
50592;BME280;36548;50.506;30.834;2023-06-22T01:42:57;100303.87;;;23.45;51.95
50592;BME280;36548;50.506;30.834;2023-06-22T01:44:08;100312.93;;;23.46;52.05
50592;BME280;36548;50.506;30.834;2023-06-22T01:45:18;100308.32;;;23.46;51.98
50592;BME280;36548;50.506;30.834;2023-06-22T01:46:28;100307.30;;;23.47;51.94
50592;BME280;36548;50.506;30.834;2023-06-22T01:47:38;100311.72;;;23.48;51.84
50592;BME280;36548;50.506;30.834;2023-06-22T01:48:50;100307.11;;;23.49;51.87
50592;BME280;36548;50.506;30.834;2023-06-22T01:49:59;100304.37;;;23.49;51.89
50592;BME280;36548;50.506;30.834;2023-06-22T01:51:08;100306.23;;;23.48;51.90
50592;BME280;36548;50.506;30.834;2023-06-22T01:52:17;100306.05;;;23.50;51.86
50592;BME280;36548;50.506;30.834;2023-06-22T01:53:28;100311.53;;;23.50;51.77
50592;BME280;36548;50.506;30.834;2023-06-22T01:54:39;100302.66;;;23.48;51.79
50592;BME280;36548;50.506;30.834;2023-06-22T01:55:49;100307.95;;;23.49;51.50
50592;BME280;36548;50.506;30.834;2023-06-22T01:56:57;100304.37;;;23.49;51.09
50592;BME280;36548;50.506;30.834;2023-06-22T01:58:06;100308.32;;;23.46;51.16
50592;BME280;36548;50.506;30.834;2023-06-22T01:59:22;100310.03;;;23.47;51.18
50592;BME280;36548;50.506;30.834;2023-06-22T02:00:31;100309.66;;;23.51;50.95
50592;BME280;36548;50.506;30.834;2023-06-22T02:02:09;100300.70;;;23.57;51.43
50592;BME280;36548;50.506;30.834;2023-06-22T02:03:25;100303.44;;;23.57;51.44
50592;BME280;36548;50.506;30.834;2023-06-22T02:04:36;100310.03;;;23.47;51.71
50592;BME280;36548;50.506;30.834;2023-06-22T02:06:04;100298.64;;;23.59;51.96
50592;BME280;36548;50.506;30.834;2023-06-22T02:07:15;100307.11;;;23.49;52.02
50592;BME280;36548;50.506;30.834;2023-06-22T02:08:28;100301.26;;;23.52;51.98
50592;BME280;36548;50.506;30.834;2023-06-22T02:09:39;100302.97;;;23.53;52.23
50592;BME280;36548;50.506;30.834;2023-06-22T02:10:50;100299.17;;;23.54;52.13
50592;BME280;36548;50.506;30.834;2023-06-22T02:12:06;100306.30;;;23.63;52.23
50592;BME280;36548;50.506;30.834;2023-06-22T02:13:16;100311.19;;;23.53;52.26
50592;BME280;36548;50.506;30.834;2023-06-22T02:14:26;100299.17;;;23.54;52.44
50592;BME280;36548;50.506;30.834;2023-06-22T02:15:36;100298.33;;;23.54;52.63
50592;BME280;36548;50.506;30.834;2023-06-22T02:16:47;100310.12;;;23.54;52.69
50592;BME280;36548;50.506;30.834;2023-06-22T02:17:56;100303.44;;;23.57;52.81
50592;BME280;36548;50.506;30.834;2023-06-22T02:19:06;100302.22;;;23.59;52.88
50592;BME280;36548;50.506;30.834;2023-06-22T02:20:16;100304.13;;;23.59;52.95
50592;BME280;36548;50.506;30.834;2023-06-22T02:21:27;100303.94;;;23.60;52.82
50592;BME280;36548;50.506;30.834;2023-06-22T02:22:38;100305.80;;;23.60;52.58
50592;BME280;36548;50.506;30.834;2023-06-22T02:23:46;100304.41;;;23.64;52.54
50592;BME280;36548;50.506;30.834;2023-06-22T02:24:55;100308.48;;;23.68;52.42
50592;BME280;36548;50.506;30.834;2023-06-22T02:26:06;100297.37;;;23.70;52.40
50592;BME280;36548;50.506;30.834;2023-06-22T02:27:16;100307.08;;;23.72;52.41
50592;BME280;36548;50.506;30.834;2023-06-22T02:28:24;100305.86;;;23.75;52.13
50592;BME280;36548;50.506;30.834;2023-06-22T02:29:33;100302.59;;;23.79;52.13
50592;BME280;36548;50.506;30.834;2023-06-22T02:30:43;100301.34;;;23.82;51.99
50592;BME280;36548;50.506;30.834;2023-06-22T02:31:53;100302.55;;;23.88;52.10
50592;BME280;36548;50.506;30.834;2023-06-22T02:33:03;100301.98;;;23.92;52.20
50592;BME280;36548;50.506;30.834;2023-06-22T02:34:12;100306.06;;;23.96;52.19
50592;BME280;36548;50.506;30.834;2023-06-22T02:35:30;100299.94;;;24.09;52.01
50592;BME280;36548;50.506;30.834;2023-06-22T02:36:43;100304.66;;;24.00;52.10
50592;BME280;36548;50.506;30.834;2023-06-22T02:37:56;100303.44;;;24.03;52.04
50592;BME280;36548;50.506;30.834;2023-06-22T02:39:06;100298.41;;;24.07;51.97
50592;BME280;36548;50.506;30.834;2023-06-22T02:40:18;100304.20;;;24.12;51.62
50592;BME280;36548;50.506;30.834;2023-06-22T02:41:28;100304.31;;;24.19;51.51
50592;BME280;36548;50.506;30.834;2023-06-22T02:42:39;100296.19;;;24.25;51.40
50592;BME280;36548;50.506;30.834;2023-06-22T02:43:49;100304.69;;;24.30;51.20
50592;BME280;36548;50.506;30.834;2023-06-22T02:45:06;100302.98;;;24.44;51.11
50592;BME280;36548;50.506;30.834;2023-06-22T02:46:15;100309.05;;;24.40;50.98
50592;BME280;36548;50.506;30.834;2023-06-22T02:47:26;100297.31;;;24.46;50.65
50592;BME280;36548;50.506;30.834;2023-06-22T02:48:35;100302.06;;;24.52;50.46
50592;BME280;36548;50.506;30.834;2023-06-22T02:49:44;100303.19;;;24.58;50.23
50592;BME280;36548;50.506;30.834;2023-06-22T02:50:55;100289.59;;;24.64;50.05
50592;BME280;36548;50.506;30.834;2023-06-22T02:52:04;100295.38;;;24.70;50.03
50592;BME280;36548;50.506;30.834;2023-06-22T02:53:13;100292.24;;;24.73;49.90
50592;BME280;36548;50.506;30.834;2023-06-22T02:54:28;100292.23;;;24.88;49.93
50592;BME280;36548;50.506;30.834;2023-06-22T02:55:38;100291.95;;;24.82;49.91
50592;BME280;36548;50.506;30.834;2023-06-22T02:56:49;100301.75;;;24.92;49.72
50592;BME280;36548;50.506;30.834;2023-06-22T02:58:05;100295.40;;;25.06;49.41
50592;BME280;36548;50.506;30.834;2023-06-22T02:59:16;100303.07;;;24.96;49.22
50592;BME280;36548;50.506;30.834;2023-06-22T03:00:26;100299.97;;;24.99;49.34
50592;BME280;36548;50.506;30.834;2023-06-22T03:01:39;100298.90;;;25.00;49.23
50592;BME280;36548;50.506;30.834;2023-06-22T03:02:53;100296.83;;;25.02;49.05
50592;BME280;36548;50.506;30.834;2023-06-22T03:04:03;100297.47;;;25.04;49.17
50592;BME280;36548;50.506;30.834;2023-06-22T03:05:12;100298.14;;;25.06;49.53
50592;BME280;36548;50.506;30.834;2023-06-22T03:06:23;100298.78;;;25.08;49.71
50592;BME280;36548;50.506;30.834;2023-06-22T03:07:40;100302.34;;;25.24;50.02
50592;BME280;36548;50.506;30.834;2023-06-22T03:08:50;100308.82;;;25.16;50.02
50592;BME280;36548;50.506;30.834;2023-06-22T03:09:59;100303.97;;;25.18;49.91
50592;BME280;36548;50.506;30.834;2023-06-22T03:11:07;100302.09;;;25.18;50.02
50592;BME280;36548;50.506;30.834;2023-06-22T03:12:17;100302.93;;;25.19;50.05
50592;BME280;36548;50.506;30.834;2023-06-22T03:13:28;100314.39;;;25.23;50.20
50592;BME280;36548;50.506;30.834;2023-06-22T03:14:37;100316.08;;;25.24;50.12
50592;BME280;36548;50.506;30.834;2023-06-22T03:15:47;100315.91;;;25.25;50.08
50592;BME280;36548;50.506;30.834;2023-06-22T03:16:56;100309.82;;;25.30;49.99
50592;BME280;36548;50.506;30.834;2023-06-22T03:18:15;100310.01;;;25.43;49.83
50592;BME280;36548;50.506;30.834;2023-06-22T03:19:24;100319.02;;;25.37;49.67
50592;BME280;36548;50.506;30.834;2023-06-22T03:20:34;100318.25;;;25.43;49.50
50592;BME280;36548;50.506;30.834;2023-06-22T03:21:50;100312.47;;;25.60;49.50
50592;BME280;36548;50.506;30.834;2023-06-22T03:22:59;100313.07;;;25.55;49.46
50592;BME280;36548;50.506;30.834;2023-06-22T03:24:09;100316.53;;;25.64;49.19
50592;BME280;36548;50.506;30.834;2023-06-22T03:25:17;100317.67;;;25.69;48.71
50592;BME280;36548;50.506;30.834;2023-06-22T03:26:28;100316.03;;;25.75;48.79
50592;BME280;36548;50.506;30.834;2023-06-22T03:27:38;100316.73;;;25.84;48.35
50592;BME280;36548;50.506;30.834;2023-06-22T03:28:48;100314.28;;;25.96;48.03
50592;BME280;36548;50.506;30.834;2023-06-22T03:29:58;100319.88;;;26.02;47.73
50592;BME280;36548;50.506;30.834;2023-06-22T03:31:06;100316.72;;;26.06;47.58
50592;BME280;36548;50.506;30.834;2023-06-22T03:32:17;100317.84;;;26.11;47.28
50592;BME280;36548;50.506;30.834;2023-06-22T03:33:25;100308.78;;;26.17;47.89
50592;BME280;36548;50.506;30.834;2023-06-22T03:34:37;100316.22;;;26.24;48.12
50592;BME280;36548;50.506;30.834;2023-06-22T03:35:46;100313.72;;;26.29;47.46
50592;BME280;36548;50.506;30.834;2023-06-22T03:36:56;100315.89;;;26.33;47.31
50592;BME280;36548;50.506;30.834;2023-06-22T03:38:06;100315.48;;;26.36;47.61
50592;BME280;36548;50.506;30.834;2023-06-22T03:39:21;100316.22;;;26.52;47.47
50592;BME280;36548;50.506;30.834;2023-06-22T03:40:30;100313.88;;;26.49;47.33
50592;BME280;36548;50.506;30.834;2023-06-22T03:41:40;100320.27;;;26.56;47.05
50592;BME280;36548;50.506;30.834;2023-06-22T03:42:50;100315.39;;;26.58;46.99
50592;BME280;36548;50.506;30.834;2023-06-22T03:43:58;100313.30;;;26.60;47.05
50592;BME280;36548;50.506;30.834;2023-06-22T03:45:07;100315.43;;;26.65;46.96
50592;BME280;36548;50.506;30.834;2023-06-22T03:46:18;100319.30;;;26.70;46.99
50592;BME280;36548;50.506;30.834;2023-06-22T03:47:29;100314.87;;;26.76;47.21
50592;BME280;36548;50.506;30.834;2023-06-22T03:48:38;100314.29;;;26.81;47.41
50592;BME280;36548;50.506;30.834;2023-06-22T03:49:48;100315.34;;;26.80;47.08
50592;BME280;36548;50.506;30.834;2023-06-22T03:50:59;100313.42;;;26.80;47.04
50592;BME280;36548;50.506;30.834;2023-06-22T03:52:20;100307.14;;;27.00;46.95
50592;BME280;36548;50.506;30.834;2023-06-22T03:53:31;100312.45;;;26.95;47.20
50592;BME280;36548;50.506;30.834;2023-06-22T03:54:41;100312.86;;;26.98;46.93
50592;BME280;36548;50.506;30.834;2023-06-22T03:55:51;100313.73;;;27.05;46.77
50592;BME280;36548;50.506;30.834;2023-06-22T03:57:06;100310.41;;;27.23;46.64
50592;BME280;36548;50.506;30.834;2023-06-22T03:58:14;100321.22;;;27.18;46.76
50592;BME280;36548;50.506;30.834;2023-06-22T03:59:24;100320.59;;;27.23;46.88
50592;BME280;36548;50.506;30.834;2023-06-22T04:00:33;100320.38;;;27.25;46.66
50592;BME280;36548;50.506;30.834;2023-06-22T04:01:42;100315.28;;;27.21;46.87
50592;BME280;36548;50.506;30.834;2023-06-22T04:02:51;100315.91;;;27.23;46.86
50592;BME280;36548;50.506;30.834;2023-06-22T04:04:00;100317.41;;;27.26;47.02
50592;BME280;36548;50.506;30.834;2023-06-22T04:05:09;100316.15;;;27.29;47.07
50592;BME280;36548;50.506;30.834;2023-06-22T04:06:20;100321.45;;;27.30;47.04
50592;BME280;36548;50.506;30.834;2023-06-22T04:07:30;100319.56;;;27.31;47.15
50592;BME280;36548;50.506;30.834;2023-06-22T04:08:41;100323.42;;;27.36;47.36
50592;BME280;36548;50.506;30.834;2023-06-22T04:09:50;100318.33;;;27.40;47.32
50592;BME280;36548;50.506;30.834;2023-06-22T04:11:05;100325.59;;;27.54;47.36
50592;BME280;36548;50.506;30.834;2023-06-22T04:12:13;100327.28;;;27.49;47.43
50592;BME280;36548;50.506;30.834;2023-06-22T04:13:22;100326.87;;;27.59;48.38
50592;BME280;36548;50.506;30.834;2023-06-22T04:14:31;100328.36;;;27.75;48.62
50592;BME280;36548;50.506;30.834;2023-06-22T04:15:40;100334.31;;;27.92;48.21
50592;BME280;36548;50.506;30.834;2023-06-22T04:16:48;100328.83;;;28.05;48.15
50592;BME280;36548;50.506;30.834;2023-06-22T04:17:57;100336.03;;;28.19;48.26
50592;BME280;36548;50.506;30.834;2023-06-22T04:19:06;100337.30;;;28.30;47.95
50592;BME280;36548;50.506;30.834;2023-06-22T04:20:16;100341.55;;;28.39;47.66
50592;BME280;36548;50.506;30.834;2023-06-22T04:21:26;100340.05;;;28.50;47.53
50592;BME280;36548;50.506;30.834;2023-06-22T04:22:35;100331.55;;;28.52;47.36
50592;BME280;36548;50.506;30.834;2023-06-22T04:23:43;100338.73;;;28.60;47.39
50592;BME280;36548;50.506;30.834;2023-06-22T04:24:52;100335.77;;;28.68;47.12
50592;BME280;36548;50.506;30.834;2023-06-22T04:26:03;100340.01;;;28.77;47.04
50592;BME280;36548;50.506;30.834;2023-06-22T04:27:13;100335.53;;;28.83;46.83
50592;BME280;36548;50.506;30.834;2023-06-22T04:28:22;100334.67;;;28.89;46.40
50592;BME280;36548;50.506;30.834;2023-06-22T04:29:32;100338.48;;;28.95;46.44
50592;BME280;36548;50.506;30.834;2023-06-22T04:30:41;100343.53;;;29.04;46.40
50592;BME280;36548;50.506;30.834;2023-06-22T04:31:58;100336.20;;;29.23;46.24
50592;BME280;36548;50.506;30.834;2023-06-22T04:33:09;100344.33;;;29.18;46.50
50592;BME280;36548;50.506;30.834;2023-06-22T04:34:18;100347.09;;;29.25;46.34
50592;BME280;36548;50.506;30.834;2023-06-22T04:35:28;100343.88;;;29.28;46.25
50592;BME280;36548;50.506;30.834;2023-06-22T04:36:37;100341.51;;;29.32;45.54
50592;BME280;36548;50.506;30.834;2023-06-22T04:37:48;100347.03;;;29.32;45.47
50592;BME280;36548;50.506;30.834;2023-06-22T04:38:57;100342.53;;;29.37;45.50
50592;BME280;36548;50.506;30.834;2023-06-22T04:40:07;100348.03;;;29.44;45.64
50592;BME280;36548;50.506;30.834;2023-06-22T04:41:17;100347.55;;;29.54;45.73
50592;BME280;36548;50.506;30.834;2023-06-22T04:42:37;100345.51;;;29.74;45.57
50592;BME280;36548;50.506;30.834;2023-06-22T04:43:45;100350.02;;;29.69;45.15
50592;BME280;36548;50.506;30.834;2023-06-22T04:45:02;100339.70;;;29.83;45.14
50592;BME280;36548;50.506;30.834;2023-06-22T04:46:11;100349.52;;;29.79;45.29
50592;BME280;36548;50.506;30.834;2023-06-22T04:47:20;100353.34;;;29.84;45.67
50592;BME280;36548;50.506;30.834;2023-06-22T04:48:29;100349.92;;;29.89;45.79
50592;BME280;36548;50.506;30.834;2023-06-22T04:49:41;100348.17;;;29.95;45.69
50592;BME280;36548;50.506;30.834;2023-06-22T04:50:52;100358.33;;;30.01;45.62
50592;BME280;36548;50.506;30.834;2023-06-22T04:52:01;100354.09;;;29.98;45.75
50592;BME280;36548;50.506;30.834;2023-06-22T04:53:10;100358.15;;;29.96;46.49
50592;BME280;36548;50.506;30.834;2023-06-22T04:54:27;100353.76;;;30.13;46.26
50592;BME280;36548;50.506;30.834;2023-06-22T04:55:37;100357.22;;;30.08;46.05
50592;BME280;36548;50.506;30.834;2023-06-22T04:56:54;100351.11;;;30.25;45.78
50592;BME280;36548;50.506;30.834;2023-06-22T04:58:06;100356.25;;;30.21;45.82
50592;BME280;36548;50.506;30.834;2023-06-22T04:59:15;100363.86;;;30.26;45.77
50592;BME280;36548;50.506;30.834;2023-06-22T05:00:26;100361.27;;;30.31;45.50
50592;BME280;36548;50.506;30.834;2023-06-22T05:01:36;100358.91;;;30.35;45.30
50592;BME280;36548;50.506;30.834;2023-06-22T05:02:45;100354.61;;;30.39;45.45
50592;BME280;36548;50.506;30.834;2023-06-22T05:03:56;100353.72;;;30.45;45.49
50592;BME280;36548;50.506;30.834;2023-06-22T05:05:06;100362.19;;;30.50;45.20
50592;BME280;36548;50.506;30.834;2023-06-22T05:06:16;100357.02;;;30.54;45.14
50592;BME280;36548;50.506;30.834;2023-06-22T05:07:27;100366.57;;;30.58;45.02
50592;BME280;36548;50.506;30.834;2023-06-22T05:08:37;100358.20;;;30.65;44.93
50592;BME280;36548;50.506;30.834;2023-06-22T05:09:52;100359.53;;;30.81;44.74
50592;BME280;36548;50.506;30.834;2023-06-22T05:11:01;100364.91;;;30.75;44.79
50592;BME280;36548;50.506;30.834;2023-06-22T05:12:12;100360.97;;;30.83;44.76
50592;BME280;36548;50.506;30.834;2023-06-22T05:13:20;100365.38;;;30.91;44.60
50592;BME280;36548;50.506;30.834;2023-06-22T05:14:38;100362.02;;;31.07;44.65
50592;BME280;36548;50.506;30.834;2023-06-22T05:15:51;100360.78;;;31.03;44.36
50592;BME280;36548;50.506;30.834;2023-06-22T05:17:01;100368.78;;;31.11;43.67
50592;BME280;36548;50.506;30.834;2023-06-22T05:18:22;100360.67;;;31.28;43.03
50592;BME280;36548;50.506;30.834;2023-06-22T05:22:03;100363.13;;;31.37;41.94
50592;BME280;36548;50.506;30.834;2023-06-22T05:23:13;100364.98;;;31.43;42.32
50592;BME280;36548;50.506;30.834;2023-06-22T05:24:22;100352.69;;;31.51;42.39
50592;BME280;36548;50.506;30.834;2023-06-22T05:25:31;100354.73;;;31.55;42.21
50592;BME280;36548;50.506;30.834;2023-06-22T05:26:40;100361.55;;;31.59;42.16
50592;BME280;36548;50.506;30.834;2023-06-22T05:27:50;100359.39;;;31.61;41.88
50592;BME280;36548;50.506;30.834;2023-06-22T05:29:00;100363.00;;;31.62;41.47
50592;BME280;36548;50.506;30.834;2023-06-22T05:30:18;100358.97;;;31.76;41.23
50592;BME280;36548;50.506;30.834;2023-06-22T05:31:29;100363.16;;;31.67;40.74
50592;BME280;36548;50.506;30.834;2023-06-22T05:32:40;100362.55;;;31.65;40.36
50592;BME280;36548;50.506;30.834;2023-06-22T05:33:49;100355.66;;;31.68;40.29
50592;BME280;36548;50.506;30.834;2023-06-22T05:34:58;100348.55;;;31.72;40.31
50592;BME280;36548;50.506;30.834;2023-06-22T05:36:07;100353.42;;;31.76;40.49
50592;BME280;36548;50.506;30.834;2023-06-22T05:37:17;100358.00;;;31.83;41.08
50592;BME280;36548;50.506;30.834;2023-06-22T05:38:26;100349.81;;;31.88;41.47
50592;BME280;36548;50.506;30.834;2023-06-22T05:39:40;100354.44;;;32.06;41.57
50592;BME280;36548;50.506;30.834;2023-06-22T05:40:49;100360.69;;;32.01;41.58
50592;BME280;36548;50.506;30.834;2023-06-22T05:41:58;100355.52;;;32.05;41.57
50592;BME280;36548;50.506;30.834;2023-06-22T05:43:08;100346.00;;;32.12;40.02
50592;BME280;36548;50.506;30.834;2023-06-22T05:44:17;100355.58;;;32.17;39.56
50592;BME280;36548;50.506;30.834;2023-06-22T05:45:27;100353.52;;;32.24;39.59
50592;BME280;36548;50.506;30.834;2023-06-22T05:46:40;100355.57;;;32.28;39.08
50592;BME280;36548;50.506;30.834;2023-06-22T05:47:47;100356.53;;;32.34;39.10
50592;BME280;36548;50.506;30.834;2023-06-22T05:48:56;100358.61;;;32.39;39.13
50592;BME280;36548;50.506;30.834;2023-06-22T05:50:06;100355.47;;;32.47;38.40
50592;BME280;36548;50.506;30.834;2023-06-22T05:51:19;100355.56;;;32.52;37.58
50592;BME280;36548;50.506;30.834;2023-06-22T05:52:29;100352.08;;;32.57;36.73
50592;BME280;36548;50.506;30.834;2023-06-22T05:53:38;100356.90;;;32.61;37.30
50592;BME280;36548;50.506;30.834;2023-06-22T05:54:49;100350.60;;;32.66;37.34
50592;BME280;36548;50.506;30.834;2023-06-22T05:55:57;100349.27;;;32.69;36.54
50592;BME280;36548;50.506;30.834;2023-06-22T05:57:12;100350.72;;;32.83;34.57
50592;BME280;36548;50.506;30.834;2023-06-22T05:58:20;100357.15;;;32.72;34.80
50592;BME280;36548;50.506;30.834;2023-06-22T05:59:35;100346.03;;;32.84;35.00
50592;BME280;36548;50.506;30.834;2023-06-22T06:00:44;100348.09;;;32.76;35.16
50592;BME280;36548;50.506;30.834;2023-06-22T06:01:52;100356.77;;;32.80;34.82
50592;BME280;36548;50.506;30.834;2023-06-22T06:03:26;100347.43;;;32.98;33.76
50592;BME280;36548;50.506;30.834;2023-06-22T06:04:37;100344.31;;;32.94;31.62
50592;BME280;36548;50.506;30.834;2023-06-22T06:05:46;100344.16;;;33.01;31.37
50592;BME280;36548;50.506;30.834;2023-06-22T06:06:55;100345.97;;;33.07;31.47
50592;BME280;36548;50.506;30.834;2023-06-22T06:08:05;100346.08;;;33.12;31.73
50592;BME280;36548;50.506;30.834;2023-06-22T06:09:14;100340.02;;;33.16;31.84
50592;BME280;36548;50.506;30.834;2023-06-22T06:10:23;100342.55;;;33.17;31.99
50592;BME280;36548;50.506;30.834;2023-06-22T06:11:32;100346.66;;;33.14;31.85
50592;BME280;36548;50.506;30.834;2023-06-22T06:12:47;100338.08;;;33.28;31.30